EVA072 EDDM-RCTP
Flight info
| Callsign | EVA072 |
|---|---|
| Flight time | N/A |
| Altitude | 23000 |
| Route | KIRDI3S KIRDI DCT BUWOQ DCT OBFEZ/N0484F290 DCT STEIN DCT TEGRI DCT LUGEB DCT UDROS UM859 KARDE UL851 OLUPO/N0478F310 UL851 TBN UR317 REBLO P130 MAMED B449 DOLOS B475 NINOP A909 LEMOD N644 PATOX/N0482F330 N644 DI A466 SULOM M890 LKN A201 LSO A599 LINSO/K0909S1010 A599 LXI/K0898S1070 A599 POU B330 TAMOT/N0485F350 B330 BIGEX DCT DALOL V631 ENVAR M750 EXTRA/N0497F290 M750 TONGA TONGA1A |
| Aircraft | B77W/H-SDE1E2E3FGHIJ2J3J4J5M1RWXY/LB1D1 |
Departure
| Time | 2026-05-05 09:37 |
|---|---|
| Airport | Munich Airport (EDDM) |
Arrival
| Time | N/A |
|---|---|
| Airport | Taiwan Taoyuan International Airport (RCTP) |
| Time | Latitude | Longitude | Altitude | Speed | Heading |
|---|---|---|---|---|---|
| 2026-05-05 07:58 | 48.35308 | 11.79356 | 1490 ft | 0 kts | 262° |
| 2026-05-05 07:58 | 48.35305 | 11.79327 | 1490 ft | 0 kts | 263° |
| 2026-05-05 09:27 | 48.35306 | 11.79340 | 1475 ft | 4 kts | 263° |
| 2026-05-05 09:27 | 48.35309 | 11.79380 | 1474 ft | 4 kts | 263° |
| 2026-05-05 09:27 | 48.35312 | 11.79414 | 1474 ft | 2 kts | 263° |
| 2026-05-05 09:28 | 48.35318 | 11.79451 | 1474 ft | 4 kts | 234° |
| 2026-05-05 09:28 | 48.35337 | 11.79472 | 1474 ft | 4 kts | 184° |
| 2026-05-05 09:28 | 48.35362 | 11.79470 | 1474 ft | 4 kts | 173° |
| 2026-05-05 09:28 | 48.35382 | 11.79467 | 1474 ft | 0 kts | 173° |
| 2026-05-05 09:30 | 48.35363 | 11.79470 | 1475 ft | 7 kts | 173° |
| 2026-05-05 09:31 | 48.35300 | 11.79481 | 1475 ft | 11 kts | 174° |
| 2026-05-05 09:31 | 48.35223 | 11.79520 | 1478 ft | 13 kts | 154° |
| 2026-05-05 09:31 | 48.35135 | 11.79587 | 1478 ft | 16 kts | 152° |
| 2026-05-05 09:31 | 48.35044 | 11.79654 | 1479 ft | 13 kts | 161° |
| 2026-05-05 09:32 | 48.34953 | 11.79677 | 1486 ft | 13 kts | 173° |
| 2026-05-05 09:32 | 48.34865 | 11.79692 | 1480 ft | 11 kts | 174° |
| 2026-05-05 09:32 | 48.34811 | 11.79723 | 1479 ft | 9 kts | 114° |
| 2026-05-05 09:32 | 48.34810 | 11.79815 | 1479 ft | 9 kts | 85° |
| 2026-05-05 09:33 | 48.34818 | 11.79912 | 1490 ft | 10 kts | 83° |
| 2026-05-05 09:33 | 48.34826 | 11.80011 | 1477 ft | 10 kts | 83° |
| 2026-05-05 09:33 | 48.34834 | 11.80111 | 1481 ft | 10 kts | 83° |
| 2026-05-05 09:33 | 48.34842 | 11.80210 | 1477 ft | 10 kts | 83° |
| 2026-05-05 09:34 | 48.34842 | 11.80312 | 1483 ft | 10 kts | 108° |
| 2026-05-05 09:34 | 48.34790 | 11.80379 | 1477 ft | 11 kts | 157° |
| 2026-05-05 09:34 | 48.34720 | 11.80401 | 1486 ft | 7 kts | 173° |
| 2026-05-05 09:34 | 48.34664 | 11.80410 | 1483 ft | 9 kts | 174° |
| 2026-05-05 09:35 | 48.34601 | 11.80420 | 1482 ft | 10 kts | 175° |
| 2026-05-05 09:35 | 48.34473 | 11.80389 | 1483 ft | 10 kts | 249° |
| 2026-05-05 09:35 | 48.34460 | 11.80202 | 1487 ft | 40 kts | 264° |
| 2026-05-05 09:36 | 48.34403 | 11.79442 | 1485 ft | 105 kts | 263° |
| 2026-05-05 09:36 | 48.34297 | 11.78071 | 1481 ft | 161 kts | 263° |
| 2026-05-05 09:36 | 48.34150 | 11.76159 | 1528 ft | 200 kts | 263° |
| 2026-05-05 09:36 | 48.33993 | 11.74080 | 1947 ft | 200 kts | 265° |
| 2026-05-05 09:37 | 48.33682 | 11.72038 | 2236 ft | 205 kts | 236° |
| 2026-05-05 09:37 | 48.32559 | 11.70789 | 2482 ft | 207 kts | 190° |
| 2026-05-05 09:37 | 48.31125 | 11.70724 | 2804 ft | 207 kts | 180° |
| 2026-05-05 09:37 | 48.29682 | 11.70726 | 3218 ft | 207 kts | 178° |
| 2026-05-05 09:38 | 48.28309 | 11.71276 | 3414 ft | 207 kts | 148° |
| 2026-05-05 09:38 | 48.27110 | 11.72506 | 3622 ft | 209 kts | 148° |
| 2026-05-05 09:38 | 48.25905 | 11.73706 | 3984 ft | 208 kts | 148° |
| 2026-05-05 09:38 | 48.24689 | 11.74911 | 4239 ft | 210 kts | 147° |
| 2026-05-05 09:39 | 48.23492 | 11.76148 | 4532 ft | 209 kts | 146° |
| 2026-05-05 09:39 | 48.22270 | 11.77413 | 4621 ft | 220 kts | 148° |
| 2026-05-05 09:39 | 48.20958 | 11.78719 | 4698 ft | 233 kts | 147° |
| 2026-05-05 09:39 | 48.19575 | 11.80111 | 4889 ft | 245 kts | 146° |
| 2026-05-05 09:40 | 48.18397 | 11.82001 | 5013 ft | 258 kts | 114° |
| 2026-05-05 09:40 | 48.18135 | 11.84684 | 5168 ft | 269 kts | 84° |
| 2026-05-05 09:40 | 48.18362 | 11.87481 | 5413 ft | 278 kts | 84° |
| 2026-05-05 09:40 | 48.18596 | 11.90390 | 5811 ft | 285 kts | 84° |
| 2026-05-05 09:41 | 48.18825 | 11.93371 | 6283 ft | 289 kts | 85° |
| 2026-05-05 09:41 | 48.19052 | 11.96380 | 6773 ft | 292 kts | 84° |
| 2026-05-05 09:41 | 48.19280 | 11.99420 | 7289 ft | 294 kts | 85° |
| 2026-05-05 09:41 | 48.19502 | 12.02476 | 7788 ft | 296 kts | 85° |
| 2026-05-05 09:42 | 48.19725 | 12.05559 | 8290 ft | 299 kts | 85° |
| 2026-05-05 09:42 | 48.19946 | 12.08673 | 8766 ft | 302 kts | 86° |
| 2026-05-05 09:42 | 48.20167 | 12.11809 | 9291 ft | 303 kts | 86° |
| 2026-05-05 09:42 | 48.20389 | 12.14958 | 9798 ft | 304 kts | 86° |
| 2026-05-05 09:43 | 48.20609 | 12.18136 | 10150 ft | 312 kts | 86° |
| 2026-05-05 09:43 | 48.20836 | 12.21472 | 10257 ft | 329 kts | 86° |
| 2026-05-05 09:43 | 48.21072 | 12.24972 | 10386 ft | 346 kts | 86° |
| 2026-05-05 09:43 | 48.21324 | 12.28649 | 10515 ft | 363 kts | 86° |
| 2026-05-05 09:44 | 48.21584 | 12.32478 | 10824 ft | 374 kts | 86° |
| 2026-05-05 09:44 | 48.21851 | 12.36400 | 11242 ft | 382 kts | 86° |
| 2026-05-05 09:44 | 48.22119 | 12.40387 | 11786 ft | 386 kts | 86° |
| 2026-05-05 09:44 | 48.22298 | 12.43050 | 12201 ft | 388 kts | 86° |
| 2026-05-05 09:45 | 48.22568 | 12.47101 | 12818 ft | 391 kts | 86° |
| 2026-05-05 09:45 | 48.22837 | 12.51181 | 13388 ft | 396 kts | 86° |
| 2026-05-05 09:45 | 48.23108 | 12.55313 | 13933 ft | 400 kts | 86° |
| 2026-05-05 09:45 | 48.23144 | 12.59475 | 14397 ft | 401 kts | 97° |
| 2026-05-05 09:46 | 48.22765 | 12.63622 | 14928 ft | 403 kts | 102° |
| 2026-05-05 09:46 | 48.22262 | 12.67778 | 15507 ft | 405 kts | 102° |
| 2026-05-05 09:46 | 48.21783 | 12.71952 | 16083 ft | 408 kts | 101° |
| 2026-05-05 09:46 | 48.21358 | 12.76168 | 16631 ft | 411 kts | 100° |
| 2026-05-05 09:47 | 48.20961 | 12.80380 | 17157 ft | 414 kts | 100° |
| 2026-05-05 09:47 | 48.20659 | 12.84695 | 17664 ft | 419 kts | 94° |
| 2026-05-05 09:47 | 48.20641 | 12.89086 | 18153 ft | 424 kts | 90° |
| 2026-05-05 09:47 | 48.20752 | 12.93507 | 18593 ft | 427 kts | 89° |
| 2026-05-05 09:48 | 48.20890 | 12.97976 | 19035 ft | 430 kts | 89° |
| 2026-05-05 09:48 | 48.21017 | 13.02470 | 19511 ft | 433 kts | 89° |
| 2026-05-05 09:48 | 48.21122 | 13.06999 | 19965 ft | 435 kts | 90° |
| 2026-05-05 09:48 | 48.21205 | 13.11549 | 20444 ft | 438 kts | 90° |
| 2026-05-05 09:49 | 48.21272 | 13.16125 | 20873 ft | 440 kts | 90° |
| 2026-05-05 09:49 | 48.21331 | 13.20749 | 21305 ft | 443 kts | 90° |
| 2026-05-05 09:49 | 48.21384 | 13.25325 | 21738 ft | 446 kts | 90° |
| 2026-05-05 09:49 | 48.21435 | 13.30006 | 22174 ft | 449 kts | 91° |
| 2026-05-05 09:50 | 48.21484 | 13.34699 | 22605 ft | 452 kts | 90° |
| 2026-05-05 09:50 | 48.21534 | 13.39411 | 23014 ft | 454 kts | 90° |
| 2026-05-05 09:50 | 48.21582 | 13.44154 | 23451 ft | 456 kts | 90° |
| 2026-05-05 09:50 | 48.21629 | 13.48923 | 23788 ft | 459 kts | 90° |
| 2026-05-05 09:51 | 48.21673 | 13.53722 | 24095 ft | 462 kts | 90° |
| 2026-05-05 09:51 | 48.21716 | 13.58570 | 24399 ft | 465 kts | 90° |
| 2026-05-05 09:51 | 48.21758 | 13.63436 | 24711 ft | 468 kts | 90° |
| 2026-05-05 09:51 | 48.21798 | 13.68327 | 25030 ft | 471 kts | 90° |
| 2026-05-05 09:52 | 48.21836 | 13.73252 | 25336 ft | 473 kts | 90° |
| 2026-05-05 09:52 | 48.21872 | 13.78202 | 25638 ft | 476 kts | 91° |
| 2026-05-05 09:52 | 48.21907 | 13.83177 | 25913 ft | 479 kts | 90° |
| 2026-05-05 09:52 | 48.21939 | 13.88177 | 26219 ft | 481 kts | 90° |
| 2026-05-05 09:53 | 48.21923 | 13.93205 | 26503 ft | 483 kts | 95° |
| 2026-05-05 09:53 | 48.21528 | 13.98148 | 26758 ft | 484 kts | 102° |
| 2026-05-05 09:53 | 48.20718 | 14.03057 | 27036 ft | 485 kts | 109° |
| 2026-05-05 09:53 | 48.19532 | 14.07804 | 27292 ft | 486 kts | 116° |
| 2026-05-05 09:54 | 48.18145 | 14.12430 | 27566 ft | 488 kts | 116° |
| 2026-05-05 09:54 | 48.16744 | 14.17078 | 27824 ft | 490 kts | 116° |
| 2026-05-05 09:54 | 48.15343 | 14.21748 | 28058 ft | 493 kts | 116° |
| 2026-05-05 09:54 | 48.13942 | 14.26451 | 28314 ft | 495 kts | 115° |
| 2026-05-05 09:55 | 48.12546 | 14.31166 | 28564 ft | 496 kts | 115° |
| 2026-05-05 09:55 | 48.11149 | 14.35901 | 28769 ft | 499 kts | 115° |
| 2026-05-05 09:55 | 48.08335 | 14.45437 | 28841 ft | 499 kts | 115° |
| 2026-05-05 09:56 | 48.05534 | 14.54898 | 28832 ft | 497 kts | 115° |
| 2026-05-05 09:56 | 48.02729 | 14.64324 | 28837 ft | 496 kts | 115° |
| 2026-05-05 09:57 | 47.99940 | 14.73660 | 28841 ft | 496 kts | 115° |
| 2026-05-05 09:57 | 47.97115 | 14.83077 | 28841 ft | 497 kts | 115° |
| 2026-05-05 09:58 | 47.94278 | 14.92502 | 28845 ft | 498 kts | 115° |
| 2026-05-05 09:58 | 47.91429 | 15.01932 | 28844 ft | 499 kts | 116° |
| 2026-05-05 09:59 | 47.88560 | 15.11392 | 28857 ft | 501 kts | 116° |
| 2026-05-05 09:59 | 47.85678 | 15.20857 | 28865 ft | 502 kts | 116° |
| 2026-05-05 10:00 | 47.82803 | 15.30272 | 28870 ft | 502 kts | 116° |
| 2026-05-05 10:00 | 47.79914 | 15.39733 | 28855 ft | 503 kts | 116° |
| 2026-05-05 10:01 | 47.77053 | 15.49221 | 28868 ft | 503 kts | 116° |
| 2026-05-05 10:01 | 47.74180 | 15.58723 | 28886 ft | 504 kts | 116° |
| 2026-05-05 10:02 | 47.71295 | 15.68220 | 28873 ft | 503 kts | 116° |
| 2026-05-05 10:02 | 47.68397 | 15.77704 | 28864 ft | 502 kts | 116° |
| 2026-05-05 10:03 | 47.65520 | 15.87088 | 28869 ft | 498 kts | 116° |
| 2026-05-05 10:03 | 47.62637 | 15.96454 | 28883 ft | 499 kts | 116° |
| 2026-05-05 10:04 | 47.59738 | 16.05838 | 28887 ft | 502 kts | 116° |
| 2026-05-05 10:04 | 47.56842 | 16.15177 | 28877 ft | 499 kts | 116° |
| 2026-05-05 10:05 | 47.53947 | 16.24490 | 28880 ft | 498 kts | 117° |
| 2026-05-05 10:05 | 47.51043 | 16.33786 | 28886 ft | 497 kts | 117° |
| 2026-05-05 10:06 | 47.48134 | 16.43065 | 28893 ft | 497 kts | 116° |
| 2026-05-05 10:06 | 47.45216 | 16.52347 | 28885 ft | 498 kts | 117° |
| 2026-05-05 10:07 | 47.42342 | 16.61688 | 28905 ft | 501 kts | 112° |
| 2026-05-05 10:07 | 47.40050 | 16.71426 | 28911 ft | 504 kts | 111° |
| 2026-05-05 10:08 | 47.37804 | 16.81159 | 28899 ft | 503 kts | 110° |
| 2026-05-05 10:08 | 47.35525 | 16.90890 | 28907 ft | 498 kts | 110° |
| 2026-05-05 10:09 | 47.33237 | 17.00532 | 28919 ft | 498 kts | 110° |
| 2026-05-05 10:09 | 47.30932 | 17.10178 | 28923 ft | 499 kts | 110° |
| 2026-05-05 10:10 | 47.28615 | 17.19840 | 28937 ft | 500 kts | 111° |
| 2026-05-05 10:10 | 47.26312 | 17.29409 | 28929 ft | 496 kts | 111° |
| 2026-05-05 10:11 | 47.24012 | 17.38923 | 28931 ft | 492 kts | 112° |
| 2026-05-05 10:11 | 47.21711 | 17.48401 | 28945 ft | 492 kts | 111° |
| 2026-05-05 10:12 | 47.19397 | 17.57897 | 28935 ft | 495 kts | 112° |
| 2026-05-05 10:12 | 47.17060 | 17.67433 | 28944 ft | 496 kts | 113° |
| 2026-05-05 10:13 | 47.14711 | 17.76980 | 28951 ft | 496 kts | 113° |
| 2026-05-05 10:13 | 47.12364 | 17.86485 | 28948 ft | 495 kts | 112° |
| 2026-05-05 10:14 | 47.10012 | 17.95975 | 28975 ft | 493 kts | 113° |
| 2026-05-05 10:14 | 47.07675 | 18.05367 | 28971 ft | 492 kts | 112° |
| 2026-05-05 10:15 | 47.05318 | 18.14783 | 28972 ft | 492 kts | 112° |
| 2026-05-05 10:15 | 47.02957 | 18.24189 | 28981 ft | 491 kts | 112° |
| 2026-05-05 10:16 | 47.00584 | 18.33600 | 28974 ft | 492 kts | 112° |
| 2026-05-05 10:16 | 46.98204 | 18.42996 | 28983 ft | 491 kts | 112° |
| 2026-05-05 10:17 | 46.95820 | 18.52377 | 28987 ft | 491 kts | 111° |
| 2026-05-05 10:17 | 46.93431 | 18.61740 | 28982 ft | 491 kts | 112° |
| 2026-05-05 10:18 | 46.91034 | 18.71088 | 28983 ft | 491 kts | 111° |
| 2026-05-05 10:18 | 46.88630 | 18.80423 | 28998 ft | 497 kts | 111° |
| 2026-05-05 10:19 | 46.86178 | 18.89913 | 28987 ft | 500 kts | 112° |
| 2026-05-05 10:19 | 46.83728 | 18.99360 | 28978 ft | 494 kts | 111° |
| 2026-05-05 10:20 | 46.81297 | 19.08689 | 28983 ft | 490 kts | 111° |
| 2026-05-05 10:20 | 46.78864 | 19.17990 | 28993 ft | 491 kts | 111° |
| 2026-05-05 10:21 | 46.76413 | 19.27318 | 29004 ft | 493 kts | 111° |
| 2026-05-05 10:21 | 46.73942 | 19.36690 | 28994 ft | 496 kts | 111° |
| 2026-05-05 10:22 | 46.71469 | 19.46031 | 28999 ft | 498 kts | 111° |
| 2026-05-05 10:22 | 46.68967 | 19.55445 | 29000 ft | 498 kts | 111° |
| 2026-05-05 10:23 | 46.66465 | 19.64822 | 28995 ft | 496 kts | 111° |
| 2026-05-05 10:23 | 46.63962 | 19.74163 | 29008 ft | 495 kts | 111° |
| 2026-05-05 10:24 | 46.61452 | 19.83495 | 29006 ft | 495 kts | 111° |
| 2026-05-05 10:24 | 46.58930 | 19.92834 | 29007 ft | 496 kts | 111° |
| 2026-05-05 10:25 | 46.56398 | 20.02173 | 29015 ft | 497 kts | 111° |
| 2026-05-05 10:25 | 46.53857 | 20.11508 | 29003 ft | 497 kts | 111° |
| 2026-05-05 10:26 | 46.51309 | 20.20834 | 29008 ft | 496 kts | 111° |
| 2026-05-05 10:26 | 46.48754 | 20.30145 | 29014 ft | 496 kts | 111° |
| 2026-05-05 10:27 | 46.46197 | 20.39434 | 29008 ft | 496 kts | 111° |
| 2026-05-05 10:27 | 46.43647 | 20.48658 | 29020 ft | 496 kts | 111° |
| 2026-05-05 10:28 | 46.41069 | 20.57943 | 29013 ft | 496 kts | 111° |
| 2026-05-05 10:28 | 46.38489 | 20.67204 | 29011 ft | 495 kts | 111° |
| 2026-05-05 10:29 | 46.35903 | 20.76455 | 29021 ft | 495 kts | 111° |
| 2026-05-05 10:29 | 46.33316 | 20.85671 | 29016 ft | 495 kts | 111° |
| 2026-05-05 10:30 | 46.30715 | 20.94904 | 29028 ft | 495 kts | 111° |
| 2026-05-05 10:30 | 46.28110 | 21.04117 | 29037 ft | 494 kts | 111° |
| 2026-05-05 10:31 | 46.25513 | 21.13239 | 29042 ft | 494 kts | 112° |
| 2026-05-05 10:31 | 46.22815 | 21.22364 | 29059 ft | 493 kts | 112° |
| 2026-05-05 10:32 | 46.20092 | 21.31443 | 29041 ft | 492 kts | 112° |
| 2026-05-05 10:32 | 46.17375 | 21.40505 | 29045 ft | 492 kts | 112° |
| 2026-05-05 10:33 | 46.14662 | 21.49553 | 29047 ft | 492 kts | 112° |
| 2026-05-05 10:33 | 46.12404 | 21.57070 | 29033 ft | 492 kts | 112° |
| 2026-05-05 10:34 | 46.09676 | 21.66117 | 29032 ft | 492 kts | 112° |
| 2026-05-05 10:34 | 46.06944 | 21.75147 | 29026 ft | 492 kts | 112° |
| 2026-05-05 10:35 | 46.04202 | 21.84174 | 29026 ft | 491 kts | 112° |
| 2026-05-05 10:35 | 46.01456 | 21.93186 | 29032 ft | 491 kts | 112° |
| 2026-05-05 10:36 | 45.98697 | 22.02203 | 29019 ft | 492 kts | 112° |
| 2026-05-05 10:36 | 45.95952 | 22.11140 | 29025 ft | 492 kts | 112° |
| 2026-05-05 10:37 | 45.93182 | 22.20132 | 29027 ft | 492 kts | 112° |
| 2026-05-05 10:37 | 45.90401 | 22.29129 | 29032 ft | 492 kts | 112° |
| 2026-05-05 10:38 | 45.87612 | 22.38116 | 29027 ft | 493 kts | 112° |
| 2026-05-05 10:38 | 45.84811 | 22.47115 | 29027 ft | 494 kts | 112° |
| 2026-05-05 10:39 | 45.82016 | 22.56063 | 29026 ft | 494 kts | 112° |
| 2026-05-05 10:39 | 45.79215 | 22.64989 | 29036 ft | 494 kts | 112° |
| 2026-05-05 10:40 | 45.76463 | 22.73738 | 29021 ft | 493 kts | 112° |
| 2026-05-05 10:40 | 45.73640 | 22.82678 | 29024 ft | 492 kts | 112° |
| 2026-05-05 10:41 | 45.70814 | 22.91598 | 29030 ft | 492 kts | 112° |
| 2026-05-05 10:41 | 45.67983 | 23.00504 | 29036 ft | 491 kts | 111° |
| 2026-05-05 10:42 | 45.63759 | 23.13731 | 29034 ft | 489 kts | 112° |
| 2026-05-05 10:43 | 45.60930 | 23.22550 | 29036 ft | 488 kts | 112° |
| 2026-05-05 10:43 | 45.58093 | 23.31372 | 29041 ft | 489 kts | 111° |
| 2026-05-05 10:44 | 45.55244 | 23.40194 | 29040 ft | 489 kts | 112° |
| 2026-05-05 10:44 | 45.52394 | 23.48995 | 29053 ft | 489 kts | 112° |
| 2026-05-05 10:45 | 45.49549 | 23.57747 | 29045 ft | 489 kts | 112° |
| 2026-05-05 10:45 | 45.46682 | 23.66541 | 29054 ft | 490 kts | 112° |
| 2026-05-05 10:46 | 45.43799 | 23.75347 | 29046 ft | 490 kts | 112° |
| 2026-05-05 10:46 | 45.40912 | 23.84141 | 29057 ft | 491 kts | 112° |
| 2026-05-05 10:47 | 45.38012 | 23.92948 | 29051 ft | 492 kts | 112° |
| 2026-05-05 10:47 | 45.35097 | 24.01760 | 29050 ft | 491 kts | 112° |
| 2026-05-05 10:48 | 45.32184 | 24.10541 | 29044 ft | 492 kts | 112° |
| 2026-05-05 10:48 | 45.29260 | 24.19330 | 29037 ft | 491 kts | 112° |
| 2026-05-05 10:49 | 45.26352 | 24.28039 | 29039 ft | 491 kts | 112° |
| 2026-05-05 10:49 | 45.23420 | 24.36795 | 29021 ft | 491 kts | 112° |
| 2026-05-05 10:50 | 45.20483 | 24.45529 | 29010 ft | 490 kts | 112° |
| 2026-05-05 10:50 | 45.17549 | 24.54233 | 29022 ft | 489 kts | 112° |
| 2026-05-05 10:51 | 45.14604 | 24.62936 | 29026 ft | 489 kts | 113° |
| 2026-05-05 10:51 | 45.11671 | 24.71580 | 29016 ft | 489 kts | 113° |
| 2026-05-05 10:52 | 45.08716 | 24.80255 | 29024 ft | 488 kts | 113° |
| 2026-05-05 10:52 | 45.05760 | 24.88909 | 29033 ft | 488 kts | 113° |
| 2026-05-05 10:53 | 45.02796 | 24.97555 | 29028 ft | 488 kts | 113° |
| 2026-05-05 10:53 | 44.99832 | 25.06175 | 29025 ft | 487 kts | 113° |
| 2026-05-05 10:54 | 44.96870 | 25.14762 | 29023 ft | 486 kts | 113° |
| 2026-05-05 10:54 | 44.93904 | 25.23334 | 29041 ft | 486 kts | 113° |
| 2026-05-05 10:55 | 44.90950 | 25.31841 | 29023 ft | 485 kts | 114° |
| 2026-05-05 10:55 | 44.87972 | 25.40394 | 29011 ft | 486 kts | 114° |
| 2026-05-05 10:56 | 44.84986 | 25.48940 | 29033 ft | 486 kts | 114° |
| 2026-05-05 10:56 | 44.81990 | 25.57490 | 29024 ft | 486 kts | 113° |
| 2026-05-05 10:57 | 44.78992 | 25.66016 | 29019 ft | 485 kts | 113° |
| 2026-05-05 10:57 | 44.75993 | 25.74518 | 29035 ft | 485 kts | 114° |
| 2026-05-05 10:58 | 44.72992 | 25.82999 | 29036 ft | 484 kts | 114° |
| 2026-05-05 10:58 | 44.69984 | 25.91474 | 29049 ft | 484 kts | 114° |
| 2026-05-05 10:59 | 44.66975 | 25.99925 | 29045 ft | 483 kts | 114° |
| 2026-05-05 10:59 | 44.63984 | 26.08300 | 29045 ft | 483 kts | 114° |
| 2026-05-05 11:00 | 44.60969 | 26.16716 | 29054 ft | 482 kts | 114° |
| 2026-05-05 11:00 | 44.57949 | 26.25122 | 29034 ft | 482 kts | 114° |
| 2026-05-05 11:01 | 44.54923 | 26.33516 | 29034 ft | 482 kts | 114° |
| 2026-05-05 11:01 | 44.51897 | 26.41888 | 29034 ft | 482 kts | 114° |
| 2026-05-05 11:02 | 44.48860 | 26.50262 | 29046 ft | 482 kts | 114° |
| 2026-05-05 11:02 | 44.45818 | 26.58623 | 29038 ft | 482 kts | 114° |
| 2026-05-05 11:03 | 44.42788 | 26.66927 | 29034 ft | 482 kts | 114° |
| 2026-05-05 11:03 | 44.39735 | 26.75269 | 29037 ft | 482 kts | 114° |
| 2026-05-05 11:04 | 44.36672 | 26.83615 | 29041 ft | 482 kts | 114° |
| 2026-05-05 11:04 | 44.33606 | 26.91941 | 29041 ft | 482 kts | 114° |
| 2026-05-05 11:05 | 44.30534 | 27.00259 | 29042 ft | 482 kts | 114° |
| 2026-05-05 11:05 | 44.27451 | 27.08581 | 29060 ft | 482 kts | 114° |
| 2026-05-05 11:06 | 44.24364 | 27.16890 | 29039 ft | 482 kts | 114° |
| 2026-05-05 11:06 | 44.21291 | 27.25135 | 29049 ft | 482 kts | 114° |
| 2026-05-05 11:07 | 44.18175 | 27.33472 | 29047 ft | 482 kts | 114° |
| 2026-05-05 11:07 | 44.15091 | 27.41699 | 29058 ft | 482 kts | 115° |
| 2026-05-05 11:08 | 44.11978 | 27.49980 | 29058 ft | 482 kts | 115° |
| 2026-05-05 11:08 | 44.08854 | 27.58263 | 29049 ft | 483 kts | 115° |
| 2026-05-05 11:09 | 44.05770 | 27.66415 | 29044 ft | 482 kts | 115° |
| 2026-05-05 11:09 | 44.02686 | 27.74547 | 29041 ft | 482 kts | 115° |
| 2026-05-05 11:10 | 43.99549 | 27.82793 | 29047 ft | 482 kts | 115° |
| 2026-05-05 11:10 | 43.96432 | 27.90962 | 29044 ft | 482 kts | 116° |
| 2026-05-05 11:11 | 43.93291 | 27.99169 | 29061 ft | 482 kts | 116° |
| 2026-05-05 11:11 | 43.90140 | 28.07379 | 29055 ft | 481 kts | 116° |
| 2026-05-05 11:12 | 43.86994 | 28.15552 | 29065 ft | 480 kts | 116° |
| 2026-05-05 11:12 | 43.83844 | 28.23714 | 29060 ft | 480 kts | 116° |
| 2026-05-05 11:13 | 43.80695 | 28.31850 | 29066 ft | 478 kts | 117° |
| 2026-05-05 11:13 | 43.77551 | 28.39948 | 29063 ft | 476 kts | 117° |
| 2026-05-05 11:14 | 43.74451 | 28.47915 | 29063 ft | 474 kts | 117° |
| 2026-05-05 11:14 | 43.71069 | 28.55735 | 29096 ft | 473 kts | 122° |
| 2026-05-05 11:15 | 43.67514 | 28.63380 | 29087 ft | 473 kts | 122° |
| 2026-05-05 11:15 | 43.63953 | 28.71030 | 29082 ft | 474 kts | 122° |
| 2026-05-05 11:16 | 43.60399 | 28.78686 | 29083 ft | 474 kts | 121° |
| 2026-05-05 11:16 | 43.56843 | 28.86349 | 29092 ft | 475 kts | 122° |
| 2026-05-05 11:17 | 43.53273 | 28.94022 | 29088 ft | 475 kts | 122° |
| 2026-05-05 11:17 | 43.49694 | 29.01692 | 29087 ft | 476 kts | 122° |
| 2026-05-05 11:18 | 43.46112 | 29.09348 | 29086 ft | 476 kts | 122° |
| 2026-05-05 11:18 | 43.42522 | 29.17000 | 29085 ft | 476 kts | 122° |
| 2026-05-05 11:19 | 43.38922 | 29.24653 | 29089 ft | 477 kts | 122° |
| 2026-05-05 11:19 | 43.35331 | 29.32269 | 29085 ft | 477 kts | 122° |
| 2026-05-05 11:20 | 43.31711 | 29.39924 | 29082 ft | 478 kts | 122° |
| 2026-05-05 11:20 | 43.28083 | 29.47580 | 29085 ft | 479 kts | 122° |
| 2026-05-05 11:21 | 43.24439 | 29.55248 | 29082 ft | 480 kts | 122° |
| 2026-05-05 11:21 | 43.20791 | 29.62904 | 29081 ft | 480 kts | 122° |
| 2026-05-05 11:22 | 43.17128 | 29.70571 | 29075 ft | 480 kts | 122° |
| 2026-05-05 11:22 | 43.13463 | 29.78221 | 29077 ft | 480 kts | 122° |
| 2026-05-05 11:23 | 43.09794 | 29.85864 | 29083 ft | 480 kts | 122° |
| 2026-05-05 11:23 | 43.06749 | 29.92188 | 29069 ft | 479 kts | 122° |
| 2026-05-05 11:24 | 43.03079 | 29.99793 | 29076 ft | 479 kts | 122° |
| 2026-05-05 11:24 | 42.99401 | 30.07399 | 29074 ft | 480 kts | 122° |
| 2026-05-05 11:25 | 42.95707 | 30.15018 | 29065 ft | 481 kts | 122° |
| 2026-05-05 11:25 | 42.92002 | 30.22637 | 29053 ft | 483 kts | 122° |
| 2026-05-05 11:26 | 42.88276 | 30.30282 | 29068 ft | 484 kts | 122° |
| 2026-05-05 11:26 | 42.84559 | 30.37890 | 29066 ft | 486 kts | 122° |
| 2026-05-05 11:27 | 42.80805 | 30.45553 | 29054 ft | 487 kts | 121° |
| 2026-05-05 11:27 | 42.77038 | 30.53227 | 29057 ft | 487 kts | 121° |
| 2026-05-05 11:28 | 42.74088 | 30.61437 | 29052 ft | 482 kts | 105° |
| 2026-05-05 11:28 | 42.72701 | 30.70285 | 29068 ft | 478 kts | 95° |
| 2026-05-05 11:29 | 42.71858 | 30.79264 | 29061 ft | 478 kts | 95° |
| 2026-05-05 11:29 | 42.70979 | 30.88240 | 29047 ft | 479 kts | 95° |
| 2026-05-05 11:30 | 42.70064 | 30.97198 | 29047 ft | 478 kts | 95° |
| 2026-05-05 11:30 | 42.69131 | 31.06160 | 29060 ft | 479 kts | 95° |
| 2026-05-05 11:31 | 42.68189 | 31.15137 | 29050 ft | 479 kts | 95° |
| 2026-05-05 11:31 | 42.67243 | 31.24097 | 29039 ft | 479 kts | 95° |
| 2026-05-05 11:32 | 42.66296 | 31.32999 | 29039 ft | 479 kts | 95° |
| 2026-05-05 11:32 | 42.65335 | 31.41963 | 29040 ft | 479 kts | 95° |
| 2026-05-05 11:33 | 42.64369 | 31.50915 | 29045 ft | 479 kts | 95° |
| 2026-05-05 11:33 | 42.63397 | 31.59856 | 29034 ft | 479 kts | 95° |
| 2026-05-05 11:34 | 42.62416 | 31.68806 | 29032 ft | 478 kts | 95° |
| 2026-05-05 11:34 | 42.61430 | 31.77736 | 29033 ft | 478 kts | 95° |
| 2026-05-05 11:35 | 42.60439 | 31.86655 | 29038 ft | 478 kts | 95° |
| 2026-05-05 11:35 | 42.59439 | 31.95585 | 29029 ft | 478 kts | 95° |
| 2026-05-05 11:36 | 42.58433 | 32.04511 | 29027 ft | 478 kts | 95° |
| 2026-05-05 11:36 | 42.57420 | 32.13420 | 29027 ft | 478 kts | 95° |
| 2026-05-05 11:37 | 42.56399 | 32.22339 | 29043 ft | 478 kts | 95° |
| 2026-05-05 11:37 | 42.55373 | 32.31243 | 29025 ft | 477 kts | 95° |
| 2026-05-05 11:38 | 42.54347 | 32.40095 | 29024 ft | 477 kts | 95° |
| 2026-05-05 11:38 | 42.53310 | 32.48967 | 29015 ft | 475 kts | 95° |
| 2026-05-05 11:39 | 42.52279 | 32.57743 | 29045 ft | 473 kts | 95° |
| 2026-05-05 11:39 | 42.51240 | 32.66516 | 29022 ft | 470 kts | 95° |
| 2026-05-05 11:40 | 42.50200 | 32.75245 | 29020 ft | 468 kts | 95° |
| 2026-05-05 11:40 | 42.49156 | 32.83953 | 29029 ft | 467 kts | 95° |
| 2026-05-05 11:41 | 42.48107 | 32.92654 | 29033 ft | 468 kts | 95° |
| 2026-05-05 11:41 | 42.47050 | 33.01354 | 29038 ft | 469 kts | 95° |
| 2026-05-05 11:42 | 42.45983 | 33.10086 | 29027 ft | 470 kts | 95° |
| 2026-05-05 11:42 | 42.44911 | 33.18825 | 29036 ft | 471 kts | 95° |
| 2026-05-05 11:43 | 42.43839 | 33.27592 | 29070 ft | 471 kts | 94° |
| 2026-05-05 11:43 | 42.42765 | 33.36330 | 29035 ft | 469 kts | 94° |
| 2026-05-05 11:44 | 42.41692 | 33.44955 | 29033 ft | 466 kts | 95° |
| 2026-05-05 11:44 | 42.40597 | 33.53582 | 29022 ft | 463 kts | 95° |
| 2026-05-05 11:45 | 42.39501 | 33.62158 | 29026 ft | 461 kts | 95° |
| 2026-05-05 11:45 | 42.38405 | 33.70707 | 29035 ft | 460 kts | 95° |
| 2026-05-05 11:46 | 42.37306 | 33.79232 | 29030 ft | 459 kts | 95° |
| 2026-05-05 11:46 | 42.36204 | 33.87733 | 29025 ft | 459 kts | 95° |
| 2026-05-05 11:47 | 42.35096 | 33.96235 | 29039 ft | 460 kts | 95° |
| 2026-05-05 11:47 | 42.33981 | 34.04768 | 29034 ft | 462 kts | 95° |
| 2026-05-05 11:48 | 42.32295 | 34.17575 | 29030 ft | 464 kts | 95° |
| 2026-05-05 11:48 | 42.31155 | 34.26166 | 29028 ft | 465 kts | 95° |
| 2026-05-05 11:49 | 42.30007 | 34.34772 | 29055 ft | 465 kts | 96° |
| 2026-05-05 11:49 | 42.28845 | 34.43400 | 29036 ft | 467 kts | 96° |
| 2026-05-05 11:50 | 42.27660 | 34.52043 | 29024 ft | 469 kts | 96° |
| 2026-05-05 11:50 | 42.26464 | 34.60713 | 29021 ft | 469 kts | 96° |
| 2026-05-05 11:51 | 42.25267 | 34.69360 | 29021 ft | 469 kts | 96° |
| 2026-05-05 11:51 | 42.24072 | 34.77960 | 29026 ft | 469 kts | 97° |
| 2026-05-05 11:52 | 42.22862 | 34.86613 | 29022 ft | 470 kts | 97° |
| 2026-05-05 11:52 | 42.21650 | 34.95276 | 29020 ft | 470 kts | 97° |
| 2026-05-05 11:53 | 42.20433 | 35.03940 | 29024 ft | 470 kts | 97° |
| 2026-05-05 11:53 | 42.19205 | 35.12624 | 29029 ft | 472 kts | 97° |
| 2026-05-05 11:54 | 42.17966 | 35.21334 | 29026 ft | 474 kts | 97° |
| 2026-05-05 11:54 | 42.16715 | 35.30076 | 29023 ft | 475 kts | 97° |
| 2026-05-05 11:55 | 42.15464 | 35.38778 | 29021 ft | 476 kts | 98° |
| 2026-05-05 11:55 | 42.14198 | 35.47543 | 29031 ft | 477 kts | 98° |
| 2026-05-05 11:56 | 42.12928 | 35.56308 | 29020 ft | 477 kts | 99° |
| 2026-05-05 11:56 | 42.11654 | 35.65070 | 29020 ft | 476 kts | 99° |
| 2026-05-05 11:57 | 42.10373 | 35.73826 | 29020 ft | 476 kts | 99° |
| 2026-05-05 11:57 | 42.09085 | 35.82580 | 29022 ft | 476 kts | 99° |
| 2026-05-05 11:58 | 42.07802 | 35.91250 | 29025 ft | 475 kts | 99° |
| 2026-05-05 11:58 | 42.06503 | 35.99986 | 29031 ft | 475 kts | 99° |
| 2026-05-05 11:59 | 42.05197 | 36.08717 | 29012 ft | 475 kts | 99° |
| 2026-05-05 11:59 | 42.03885 | 36.17437 | 29019 ft | 475 kts | 100° |
| 2026-05-05 12:00 | 42.02576 | 36.26092 | 29022 ft | 475 kts | 100° |
| 2026-05-05 12:00 | 42.01254 | 36.34787 | 29026 ft | 475 kts | 100° |
| 2026-05-05 12:01 | 41.99926 | 36.43477 | 29021 ft | 475 kts | 101° |
| 2026-05-05 12:01 | 41.98590 | 36.52169 | 29026 ft | 474 kts | 101° |
| 2026-05-05 12:02 | 41.97250 | 36.60842 | 29020 ft | 474 kts | 101° |
| 2026-05-05 12:02 | 41.95906 | 36.69499 | 29021 ft | 473 kts | 101° |
| 2026-05-05 12:03 | 41.94551 | 36.78177 | 29021 ft | 473 kts | 101° |
| 2026-05-05 12:03 | 41.93194 | 36.86826 | 29020 ft | 473 kts | 102° |
| 2026-05-05 12:04 | 41.91832 | 36.95472 | 29018 ft | 473 kts | 102° |
| 2026-05-05 12:04 | 41.90386 | 37.04090 | 29016 ft | 473 kts | 106° |
| 2026-05-05 12:05 | 41.88038 | 37.12290 | 29023 ft | 473 kts | 113° |
| 2026-05-05 12:05 | 41.85428 | 37.20403 | 29021 ft | 473 kts | 114° |
| 2026-05-05 12:06 | 41.82852 | 37.28520 | 29018 ft | 472 kts | 114° |
| 2026-05-05 12:06 | 41.80290 | 37.36639 | 29016 ft | 472 kts | 114° |
| 2026-05-05 12:07 | 41.77733 | 37.44724 | 29017 ft | 471 kts | 114° |
| 2026-05-05 12:07 | 41.75165 | 37.52815 | 29015 ft | 471 kts | 114° |
| 2026-05-05 12:08 | 41.72598 | 37.60879 | 29017 ft | 471 kts | 114° |
| 2026-05-05 12:08 | 41.70020 | 37.68945 | 29016 ft | 471 kts | 114° |
| 2026-05-05 12:09 | 41.67451 | 37.76937 | 29031 ft | 471 kts | 115° |
| 2026-05-05 12:09 | 41.64855 | 37.84986 | 29008 ft | 471 kts | 115° |
| 2026-05-05 12:10 | 41.62256 | 37.93028 | 29007 ft | 472 kts | 115° |
| 2026-05-05 12:10 | 41.60085 | 37.99728 | 29003 ft | 472 kts | 115° |
| 2026-05-05 12:11 | 41.57472 | 38.07772 | 29012 ft | 472 kts | 115° |
| 2026-05-05 12:11 | 41.54848 | 38.15825 | 29015 ft | 472 kts | 115° |
| 2026-05-05 12:12 | 41.52225 | 38.23853 | 29011 ft | 472 kts | 115° |
| 2026-05-05 12:12 | 41.49590 | 38.31895 | 29012 ft | 472 kts | 116° |
| 2026-05-05 12:13 | 41.46967 | 38.39874 | 29007 ft | 472 kts | 116° |
| 2026-05-05 12:13 | 41.44322 | 38.47897 | 29009 ft | 473 kts | 116° |
| 2026-05-05 12:14 | 41.41666 | 38.55931 | 29015 ft | 473 kts | 117° |
| 2026-05-05 12:14 | 41.39005 | 38.63956 | 29007 ft | 475 kts | 117° |
| 2026-05-05 12:15 | 41.36329 | 38.72011 | 29017 ft | 476 kts | 117° |
| 2026-05-05 12:15 | 41.33642 | 38.80072 | 29019 ft | 477 kts | 117° |
| 2026-05-05 12:16 | 41.30978 | 38.88183 | 29003 ft | 479 kts | 117° |
| 2026-05-05 12:16 | 41.28334 | 38.96267 | 29015 ft | 479 kts | 117° |
| 2026-05-05 12:17 | 41.25665 | 39.04386 | 29010 ft | 479 kts | 117° |
| 2026-05-05 12:17 | 41.22987 | 39.12504 | 28989 ft | 479 kts | 118° |
| 2026-05-05 12:18 | 41.20286 | 39.20588 | 28999 ft | 478 kts | 119° |
| 2026-05-05 12:18 | 41.17478 | 39.28613 | 28998 ft | 479 kts | 119° |
| 2026-05-05 12:19 | 41.14665 | 39.36594 | 29005 ft | 480 kts | 119° |
| 2026-05-05 12:19 | 41.11839 | 39.44639 | 28995 ft | 480 kts | 119° |
| 2026-05-05 12:20 | 41.09024 | 39.52655 | 28989 ft | 479 kts | 119° |
| 2026-05-05 12:20 | 41.06211 | 39.60643 | 29009 ft | 478 kts | 119° |
| 2026-05-05 12:21 | 41.03383 | 39.68649 | 28973 ft | 481 kts | 120° |
| 2026-05-05 12:21 | 41.00708 | 39.76717 | 28988 ft | 484 kts | 112° |
| 2026-05-05 12:22 | 40.99291 | 39.85540 | 28991 ft | 491 kts | 99° |
| 2026-05-05 12:22 | 40.99074 | 39.94534 | 29001 ft | 493 kts | 95° |
| 2026-05-05 12:23 | 40.98921 | 40.03616 | 28977 ft | 493 kts | 96° |
| 2026-05-05 12:23 | 40.98701 | 40.12703 | 28993 ft | 494 kts | 96° |
| 2026-05-05 12:24 | 40.98464 | 40.21774 | 29005 ft | 494 kts | 96° |
| 2026-05-05 12:24 | 40.98219 | 40.30903 | 29003 ft | 495 kts | 96° |
| 2026-05-05 12:25 | 40.97970 | 40.39954 | 29007 ft | 496 kts | 96° |
| 2026-05-05 12:25 | 40.97715 | 40.49091 | 28985 ft | 496 kts | 96° |
| 2026-05-05 12:26 | 40.97446 | 40.58218 | 28998 ft | 496 kts | 96° |
| 2026-05-05 12:26 | 40.97172 | 40.67337 | 28994 ft | 495 kts | 96° |
| 2026-05-05 12:27 | 40.96894 | 40.76462 | 28995 ft | 494 kts | 97° |
| 2026-05-05 12:27 | 40.96612 | 40.85498 | 28963 ft | 493 kts | 96° |
| 2026-05-05 12:28 | 40.96317 | 40.94575 | 28998 ft | 494 kts | 97° |
| 2026-05-05 12:28 | 40.96009 | 41.03698 | 29000 ft | 497 kts | 97° |
| 2026-05-05 12:29 | 40.95695 | 41.12847 | 28971 ft | 500 kts | 97° |
| 2026-05-05 12:29 | 40.95372 | 41.22043 | 28964 ft | 499 kts | 96° |
| 2026-05-05 12:30 | 40.95047 | 41.31191 | 28869 ft | 496 kts | 96° |
| 2026-05-05 12:30 | 40.94716 | 41.40266 | 28932 ft | 492 kts | 96° |
| 2026-05-05 12:31 | 40.94374 | 41.49303 | 28937 ft | 492 kts | 97° |
| 2026-05-05 12:31 | 40.94025 | 41.58362 | 28938 ft | 494 kts | 96° |
| 2026-05-05 12:32 | 40.93677 | 41.67394 | 28926 ft | 495 kts | 96° |
| 2026-05-05 12:32 | 40.93315 | 41.76492 | 28891 ft | 496 kts | 96° |
| 2026-05-05 12:33 | 40.92948 | 41.85586 | 28902 ft | 495 kts | 96° |
| 2026-05-05 12:33 | 40.92572 | 41.94663 | 28903 ft | 493 kts | 96° |
| 2026-05-05 12:34 | 40.92191 | 42.03704 | 28923 ft | 492 kts | 96° |
| 2026-05-05 12:34 | 40.91803 | 42.12742 | 28912 ft | 493 kts | 96° |
| 2026-05-05 12:35 | 40.91406 | 42.21802 | 28924 ft | 493 kts | 96° |
| 2026-05-05 12:35 | 40.91001 | 42.30882 | 28916 ft | 495 kts | 96° |
| 2026-05-05 12:36 | 40.90592 | 42.39926 | 28920 ft | 495 kts | 96° |
| 2026-05-05 12:36 | 40.90172 | 42.49028 | 28919 ft | 496 kts | 96° |